Home > Products > Valid Products > TAF

000
FTUS41 KCAR 260522 AAC
TAFCAR
TAF AMD
KCAR 260522Z 2605/2706 32007KT P6SM BKN050
     FM261300 33011KT P6SM SCT025
     FM270400 11005KT P6SM BKN015
     FM270500 12006KT P6SM BKN008=



000
FTUS41 KCAR 260522 AAC
TAFBHB
TAF AMD
KBHB 260522Z 2605/2706 22005KT P6SM SCT110
     FM261000 32008KT P6SM FEW250
     FM262200 24004KT P6SM FEW250=



000
FTUS41 KCAR 260522 AAA
TAFHUL
TAF AMD
KHUL 260522Z 2605/2706 33005KT P6SM BKN023
     FM261000 33010KT P6SM SCT030
     FM270400 10006KT P6SM BKN005=



000
FTUS41 KCAR 260522 AAB
TAFPQI
TAF AMD
KPQI 260522Z 2605/2706 33012KT P6SM OVC013
     FM261200 34012KT P6SM SCT025
     FM270400 11006KT P6SM BKN015
     FM270500 12006KT P6SM BKN008=



000
FTUS41 KCAR 260522 AAA
TAFBGR
TAF AMD
KBGR 260522Z 2605/2706 21005KT P6SM SCT250
     FM270500 00000KT P6SM BKN030=



000
FTUS41 KCAR 252320
TAFPQI
TAF
KPQI 252320Z 2600/2624 20006KT P6SM BKN080 OVC100
     FM260200 31009KT P6SM OVC020
     FM261600 34011KT P6SM BKN035=



000
FTUS41 KCAR 252320
TAFBGR
TAF
KBGR 252320Z 2600/2624 18008KT P6SM FEW090 BKN110 OVC200
     FM260200 20005KT P6SM BKN070
     FM261200 33008KT P6SM FEW250=



000
FTUS41 KCAR 252320
TAFCAR
TAF
KCAR 252320Z 2600/2624 02006KT P6SM FEW080 BKN110
     FM260200 31005KT P6SM OVC025
     FM260900 33010KT P6SM BKN025
     FM261600 34011KT P6SM BKN035=



000
FTUS41 KCAR 252320
TAFHUL
TAF
KHUL 252320Z 2600/2624 26007KT P6SM BKN080
     FM260300 30007KT P6SM BKN020
     FM261600 34011G18KT P6SM BKN035=



000
FTUS41 KCAR 252320
TAFBHB
TAF
KBHB 252320Z 2600/2624 20010KT P6SM FEW080 BKN110
     FM260100 21005KT 1SM BR BKN004
     FM260600 28004KT 6SM BR SCT250
     FM261000 32008KT P6SM FEW250=



000
FTUS41 KCAR 251433 AAC
TAFBGR
TAF AMD
KBGR 251433Z 2515/2612 21005KT P6SM SCT010
     FM251700 20006KT P6SM BKN250
     FM260600 29005KT 1/2SM FG SCT002
     FM261000 33007KT P6SM SCT250=



000
FTUS41 KCAR 251407 AAB
TAFPQI
TAF AMD
KPQI 251407Z 2514/2612 18009KT P6SM SCT025
     FM251600 18009KT P6SM BKN050
     FM252000 19009KT P6SM VCTS BKN060CB
     FM252200 21008KT P6SM -SHRA BKN050
     FM260200 27005KT P6SM BKN015
     FM260500 32010KT P6SM BKN015=



000
FTUS41 KCAR 251249 AAA
TAFBHB
TAF AMD
KBHB 251249Z 2513/2612 00000KT 1 1/2SM BR OVC003
     FM251400 15005KT 2SM BR OVC006
     FM251500 19006KT P6SM BKN015
     FM251700 20007KT P6SM BKN060
     FM260000 17004KT P6SM BKN250
     FM260300 VRB03KT 2SM BR SCT003 BKN100
     FM260900 31007KT 1SM BR SCT001=



000
FTUS41 KCAR 251249 AAA
TAFHUL
TAF AMD
KHUL 251249Z 2513/2612 20006KT P6SM OVC010
     FM251400 19007KT P6SM OVC015
     FM251600 19007KT P6SM BKN060
     FM252100 21009KT P6SM VCTS SCT025 BKN070CB
     FM260000 20006KT P6SM BKN060
     FM260300 25006KT P6SM BKN006
     FM261000 33012KT P6SM BKN020=



000
FTUS41 KCAR 251248 AAB
TAFCAR
TAF AMD
KCAR 251248Z 2513/2612 18008KT P6SM SCT015
     FM251500 18009KT P6SM SCT020 BKN060
     FM252100 21007KT P6SM VCTS BKN050CB
     FM260000 21007KT 6SM -SHRA BKN050
     FM260200 29007KT P6SM BKN015
     FM260500 32012KT P6SM BKN015=



000
FTUS41 KCAR 251233 AAA
TAFPQI
TAF AMD
KPQI 251233Z 2513/2612 18008KT P6SM SCT015
     FM251400 18009KT P6SM BKN025
     FM251600 18009KT P6SM BKN050
     FM252000 19009KT P6SM VCTS BKN060CB
     FM252200 21008KT P6SM -SHRA BKN050
     FM260200 27005KT P6SM BKN015
     FM260500 32010KT P6SM BKN015=



000
FTUS41 KCAR 251232 AAA
TAFBGR
TAF AMD
KBGR 251232Z 2513/2612 00000KT 3SM BR OVC003
     FM251500 21005KT P6SM OVC007
     FM251700 20006KT P6SM BKN250
     FM260600 29005KT 1/2SM FG SCT002
     FM261000 33007KT P6SM SCT250=



000
FTUS41 KCAR 251124
TAFHUL
TAF
KHUL 251124Z 2512/2612 20006KT P6SM OVC007
     FM251400 19007KT P6SM OVC015
     FM251600 19007KT P6SM BKN060
     FM252100 21009KT P6SM VCTS SCT025 BKN070CB
     FM260000 20006KT P6SM BKN060
     FM260300 25006KT P6SM BKN006
     FM261000 33012KT P6SM BKN020=



000
FTUS41 KCAR 251124
TAFPQI
TAF
KPQI 251124Z 2512/2612 18008KT P6SM OVC015
     FM251400 18009KT P6SM BKN025
     FM251600 18009KT P6SM BKN050
     FM252000 19009KT P6SM VCTS BKN060CB
     FM252200 21008KT P6SM -SHRA BKN050
     FM260200 27005KT P6SM BKN015
     FM260500 32010KT P6SM BKN015=



000
FTUS41 KCAR 251124
TAFBGR
TAF
KBGR 251124Z 2512/2612 00000KT 1/2SM FG OVC002
     FM251300 19006KT 1SM BR OVC004
     FM251500 21005KT P6SM OVC007
     FM251700 20006KT P6SM BKN250
     FM260600 29005KT 1/2SM FG SCT002
     FM261000 33007KT P6SM SCT250=



000
FTUS41 KCAR 251124
TAFBHB
TAF
KBHB 251124Z 2512/2612 00000KT 1/4SM FG OVC003
     FM251300 15005KT 1SM BR OVC006
     FM251500 19006KT P6SM BKN015
     FM251700 20007KT P6SM BKN060
     FM260000 17004KT P6SM BKN250
     FM260300 VRB03KT 2SM BR SCT003 BKN100
     FM260900 31007KT 1SM BR SCT001=



000
FTUS41 KCAR 251124
TAFCAR
TAF
KCAR 251124Z 2512/2612 18008KT P6SM OVC015
     FM251500 18009KT P6SM SCT020 BKN060
     FM252100 21007KT P6SM VCTS BKN050CB
     FM260000 21007KT 6SM -SHRA BKN050
     FM260200 29007KT P6SM BKN015
     FM260500 32012KT P6SM BKN015=



000
FTUS41 KCAR 251040 AAB
TAFBGR
TAF AMD
KBGR 251040Z 2511/2606 00000KT 1/4SM FG OVC002
     FM251200 00000KT 2SM BR BKN003
     FM251400 21005KT P6SM SCT005 OVC015
     FM251700 20006KT P6SM BKN250
     FM260500 VRB03KT P6SM BKN003=



000
FTUS41 KCAR 250626 AAA
TAFBHB
TAF AMD
KBHB 250626Z 2506/2606 VRB03KT 1/2SM FG OVC003
     FM250800 18006KT 1SM BR OVC002
     FM251500 18005KT 1SM BR OVC003
     FM251600 19006KT P6SM BKN001
     FM260000 20006KT P6SM BKN003
     FM260100 19005KT P6SM BKN001
     FM260500 VRB03KT P6SM BKN003=



000
FTUS41 KCAR 250548
TAFBHB
TAF
KBHB 250548Z 2506/2606 VRB03KT 1SM BR OVC003
     FM251500 18005KT 1SM BR OVC003
     FM251600 19006KT P6SM BKN001
     FM260000 20006KT P6SM BKN003
     FM260100 19005KT P6SM BKN001
     FM260500 VRB03KT P6SM BKN003=



000
FTUS41 KCAR 250548
TAFCAR
TAF
KCAR 250548Z 2506/2606 17006KT P6SM BKN020
     FM250800 18007KT 6SM -DZ BKN008
     FM251200 18008KT P6SM BKN005
     FM251400 18009KT P6SM BKN250
     FM252000 20008KT 3SM -SHRA BKN070
     FM252300 18006KT P6SM BKN050
     FM260200 27006KT P6SM BKN015=



000
FTUS41 KCAR 250548
TAFBGR
TAF
KBGR 250548Z 2506/2606 00000KT P6SM OVC003
     FM250800 00000KT 6SM -DZ OVC002
     FM251100 00000KT 6SM -DZ OVC003
     FM251200 00000KT P6SM BKN003
     FM251500 21005KT P6SM OVC015
     FM251700 20006KT P6SM BKN250
     FM260500 VRB03KT P6SM BKN003=



000
FTUS41 KCAR 250548
TAFHUL
TAF
KHUL 250548Z 2506/2606 19006KT P6SM OVC015
     FM250800 19005KT P6SM -DZ OVC008
     FM251000 19005KT 6SM -DZ BKN005
     FM251300 19007KT P6SM BKN120
     FM252100 22008KT 3SM -SHRA SCT025 BKN060
     FM260000 19007KT P6SM BKN070
     FM260300 22005KT P6SM BKN008=



000
FTUS41 KCAR 250548
TAFBHB
TAF
KBHB 250548Z 2506/2606 VRB03KT 1SM BR OVC001
     FM251500 18005KT 1SM BR OVC003
     FM251600 19006KT P6SM BKN001
     FM260000 20006KT P6SM BKN003
     FM260100 19005KT P6SM BKN001
     FM260500 VRB03KT P6SM BKN003=



000
FTUS41 KCAR 250548
TAFPQI
TAF
KPQI 250548Z 2506/2606 17005KT P6SM BKN015
     FM250800 18007KT 6SM -DZ OVC010
     FM251100 18008KT P6SM BKN008
     FM251300 18009KT P6SM BKN250
     FM252000 21007KT 3SM -SHRA SCT025 BKN070
     FM252300 19007KT P6SM BKN050
     FM260200 27005KT P6SM BKN020=



000
FTUS41 KCAR 250357 AAB
TAFBGR
TAF AMD
KBGR 250357Z 2504/2524 17005KT P6SM OVC004
     FM250500 00000KT P6SM OVC005
     FM251200 VRB03KT P6SM BKN008
     FM251400 21004KT P6SM BKN015
     FM251600 21006KT P6SM BKN025
     FM251800 20007KT P6SM SCT035
     FM252100 20008KT P6SM VCSH BKN045=



000
FTUS41 KCAR 250137 AAB
TAFBHB
TAF AMD
KBHB 250137Z 2502/2524 VRB03KT 2SM BR OVC004
     FM251200 VRB03KT P6SM BKN008
     FM251500 18005KT P6SM BKN015
     FM251700 20007KT P6SM BKN025
     FM251900 20008KT P6SM BKN035
     FM252100 20008KT P6SM VCSH BKN045=



000
FTUS41 KCAR 250044 AAA
TAFBHB
TAF AMD
KBHB 250044Z 2501/2524 VRB03KT 5SM BR OVC004
     FM251200 VRB03KT P6SM BKN008
     FM251500 18005KT P6SM BKN015
     FM251700 20007KT P6SM BKN025
     FM251900 20008KT P6SM BKN035
     FM252100 20008KT P6SM VCSH BKN045=



000
FTUS41 KCAR 242323 AAA
TAFCAR
TAF AMD
KCAR 242323Z 2423/2524 17008KT P6SM SCT050
     FM250300 17006KT P6SM BKN040
     FM250600 17006KT P6SM BKN028
     FM250800 18007KT P6SM BKN015
     FM251030 18008KT P6SM BKN008
     FM251400 18007KT P6SM BKN022
     FM251600 19009KT P6SM BKN035
     FM252000 20008KT 3SM SHRA OVC028
     FM252300 18006KT P6SM BKN035=



000
FTUS41 KCAR 242322
TAFHUL
TAF
KHUL 242322Z 2500/2524 17006KT P6SM BKN030
     FM250200 18006KT P6SM BKN020
     FM250400 19006KT P6SM BKN010
     FM250600 19005KT P6SM BKN008
     FM250900 19005KT P6SM BKN005
     FM251300 20006KT P6SM BKN015
     FM251700 20008KT P6SM BKN035
     FM252100 22008KT 3SM SHRA OVC030=



000
FTUS41 KCAR 242322
TAFCAR
TAF
KCAR 242322Z 2500/2524 17005KT P6SM SCT050
     FM250300 17006KT P6SM BKN040
     FM250600 17006KT P6SM BKN028
     FM250800 18007KT P6SM BKN015
     FM251030 18008KT P6SM BKN008
     FM251400 18007KT P6SM BKN022
     FM251600 19009KT P6SM BKN035
     FM252000 20008KT 3SM SHRA OVC028
     FM252300 18006KT P6SM BKN035=



000
FTUS41 KCAR 242322
TAFBHB
TAF
KBHB 242322Z 2500/2524 VRB03KT 6SM BR OVC008
     FM250300 VRB02KT 2SM BR OVC004
     FM251200 VRB03KT P6SM BKN008
     FM251500 18005KT P6SM BKN015
     FM251700 20007KT P6SM BKN025
     FM251900 20008KT P6SM BKN035
     FM252100 20008KT P6SM VCSH BKN045=



000
FTUS41 KCAR 242322
TAFBGR
TAF
KBGR 242322Z 2500/2524 17005KT P6SM BKN012
     FM250400 00000KT P6SM OVC005
     FM251200 VRB03KT P6SM BKN008
     FM251400 21004KT P6SM BKN015
     FM251600 21006KT P6SM BKN025
     FM251800 20007KT P6SM SCT035
     FM252100 20008KT P6SM VCSH BKN045=



000
FTUS41 KCAR 242322
TAFPQI
TAF
KPQI 242322Z 2500/2524 17005KT P6SM SCT050
     FM250300 17006KT P6SM BKN040
     FM250600 17006KT P6SM BKN028
     FM250800 18007KT P6SM BKN015
     FM251030 18008KT P6SM BKN008
     FM251400 18007KT P6SM BKN022
     FM251600 19009KT P6SM BKN035
     FM252000 20008KT 3SM SHRA OVC028
     FM252300 18006KT P6SM BKN035=



000
FTUS41 KCAR 241846 AAA
TAFBHB
TAF AMD
KBHB 241846Z 2419/2518 11007KT P6SM OVC014
     FM242300 13004KT 4SM BR OVC012
     FM250200 17004KT 1/2SM FG OVC002
     FM251200 17004KT 3SM BR OVC003
     FM251400 20005KT P6SM OVC008
     FM251600 20007KT P6SM BKN025=



000
FTUS41 KCAR 241731
TAFBHB
TAF
KBHB 241731Z 2418/2518 11007KT P6SM OVC025
     FM242300 13004KT 4SM BR OVC012
     FM250200 17004KT 1/2SM FG OVC002
     FM251200 17004KT 3SM BR OVC003
     FM251400 20005KT P6SM OVC008
     FM251600 20007KT P6SM BKN025=



000
FTUS41 KCAR 241731
TAFCAR
TAF
KCAR 241731Z 2418/2518 17007KT P6SM SCT250
     FM250600 18005KT P6SM BKN015
     FM251200 18007KT P6SM BKN025
     FM251300 18007KT P6SM SCT060 BKN250
     FM251700 20008KT P6SM VCSH BKN060=



000
FTUS41 KCAR 241731
TAFBGR
TAF
KBGR 241731Z 2418/2518 12006KT P6SM OVC028
     FM242200 17006KT P6SM OVC015
     FM250000 17004KT P6SM OVC008
     FM250200 VRB03KT 5SM BR OVC003
     FM251500 20006KT P6SM BKN030=



000
FTUS41 KCAR 241731
TAFHUL
TAF
KHUL 241731Z 2418/2518 16006KT P6SM SCT060
     FM242100 16007KT P6SM BKN040
     FM250400 18006KT P6SM OVC005
     FM251300 19006KT P6SM BKN015
     FM251500 20007KT P6SM BKN030
     FM251700 20008KT P6SM BKN040=



000
FTUS41 KCAR 241731
TAFPQI
TAF
KPQI 241731Z 2418/2518 14007KT P6SM SCT250
     FM250600 17005KT P6SM BKN025
     FM250800 18005KT P6SM BKN008
     FM251000 19005KT P6SM BKN015
     FM251200 18007KT P6SM BKN025
     FM251300 18007KT P6SM BKN060=



000
FTUS41 KCAR 241601 AAB
TAFBHB
TAF AMD
KBHB 241601Z 2416/2512 09005KT P6SM OVC030
     FM242000 13006KT P6SM VCSH BKN025
     FM250000 VRB03KT P6SM VCSH OVC010
     FM250300 VRB03KT 4SM BR OVC006
     FM250600 VRB03KT 1SM BR OVC003=



000
FTUS41 KCAR 241317 AAA
TAFHUL
TAF AMD
KHUL 241317Z 2413/2512 VRB03KT P6SM SCT017
      TEMPO 2413/2414 BKN017
     FM241400 15006KT P6SM BKN200
     FM241800 15006KT P6SM BKN060
     FM250000 17006KT P6SM VCSH OVC025
     FM250300 18006KT P6SM VCSH OVC015
     FM250600 18006KT P6SM VCSH OVC010=



000
FTUS41 KCAR 240508 AAC
TAFBHB
TAF AMD
KBHB 240508Z 2405/2424 06004KT P6SM OVC007
     FM241300 09006KT P6SM BKN015
     FM241600 12006KT P6SM BKN025
     FM242200 13004KT P6SM BKN012=



000
FTUS41 KCAR 240251 AAE
TAFBGR
TAF AMD
KBGR 240251Z 2403/2424 17006KT P6SM BKN025
     FM240600 VRB02KT P6SM BKN015
     FM241100 VRB03KT P6SM BKN025
     FM241500 12005KT P6SM BKN035
     FM242200 17004KT P6SM BKN025=



000
FTUS41 KCAR 240238 AAE
TAFBHB
TAF AMD
KBHB 240238Z 2403/2424 VRB03KT P6SM BKN012
     FM240600 VRB03KT P6SM BKN008
     FM241300 09006KT P6SM BKN015
     FM241600 12006KT P6SM BKN025
     FM242200 13004KT P6SM BKN012=



    US Dept of Commerce
    National Oceanic and Atmospheric Administration
    National Weather Service
    1325 East West Highway
    Silver Spring, MD 20910
    Page Author: NWS Internet Services Team
Disclaimer
Information Quality
Credits
Glossary
Privacy Policy
Freedom of Information Act (FOIA)
About Us
Career Opportunities